createdAt,value
2018-03-25T00:00:19.409Z,4.58
2018-03-25T00:02:49.000Z,4.57
2018-03-25T00:05:18.440Z,4.55
2018-03-25T00:07:48.714Z,4.54
2018-03-25T00:10:17.764Z,4.54
2018-03-25T00:12:47.682Z,4.53
2018-03-25T00:15:16.902Z,4.53
2018-03-25T00:17:45.989Z,4.53
2018-03-25T00:20:15.478Z,4.53
2018-03-25T00:22:44.800Z,4.55
2018-03-25T00:25:14.029Z,4.58
2018-03-25T00:27:43.973Z,4.59
2018-03-25T00:30:13.222Z,4.52
2018-03-25T00:32:43.106Z,4.43
2018-03-25T00:35:12.973Z,4.36
2018-03-25T00:37:42.103Z,4.28
2018-03-25T00:40:11.953Z,4.29
2018-03-25T00:42:41.553Z,4.33
2018-03-25T00:45:11.769Z,4.36
2018-03-25T00:47:41.891Z,4.39
2018-03-25T00:50:10.995Z,4.39
2018-03-25T00:52:41.644Z,4.39
2018-03-25T00:55:11.439Z,4.38
2018-03-25T00:57:41.634Z,4.38
2018-03-25T01:00:11.746Z,4.37
2018-03-25T01:02:40.812Z,4.37
2018-03-25T01:05:10.488Z,4.37
2018-03-25T01:07:39.595Z,4.36
2018-03-25T01:10:08.594Z,4.35
2018-03-25T01:12:38.441Z,4.36
2018-03-25T01:15:07.787Z,4.38
2018-03-25T01:17:37.051Z,4.40
2018-03-25T01:20:06.091Z,4.41
2018-03-25T01:22:35.191Z,4.41
2018-03-25T01:25:04.502Z,4.36
2018-03-25T01:27:34.070Z,4.35
2018-03-25T01:30:03.177Z,4.34
2018-03-25T01:32:32.349Z,4.34
2018-03-25T01:35:01.702Z,4.33
2018-03-25T01:37:30.786Z,4.32
2018-03-25T01:40:00.717Z,4.30
2018-03-25T01:42:29.897Z,4.31
2018-03-25T01:44:58.946Z,4.30
2018-03-25T01:47:28.871Z,4.32
2018-03-25T01:49:58.870Z,4.33
2018-03-25T01:52:27.986Z,4.34
2018-03-25T01:54:57.062Z,4.32
2018-03-25T01:57:26.105Z,4.30
2018-03-25T01:59:57.023Z,4.30
2018-03-25T02:02:26.246Z,4.31
2018-03-25T02:04:55.284Z,4.31
2018-03-25T02:07:24.349Z,4.31
2018-03-25T02:09:53.484Z,4.31
2018-03-25T02:12:22.772Z,4.33
2018-03-25T02:14:53.017Z,4.36
2018-03-25T02:17:22.505Z,4.36
2018-03-25T02:19:52.261Z,4.36
2018-03-25T02:22:21.708Z,4.34
2018-03-25T02:24:51.445Z,4.34
2018-03-25T02:27:20.605Z,4.31
2018-03-25T02:29:49.934Z,4.29
2018-03-25T02:32:18.999Z,4.27
2018-03-25T02:34:48.415Z,4.27
2018-03-25T02:37:18.181Z,4.28
2018-03-25T02:39:47.549Z,4.27
2018-03-25T02:42:16.610Z,4.24
2018-03-25T02:44:45.963Z,4.21
2018-03-25T02:47:15.270Z,4.16
2018-03-25T02:49:44.773Z,4.11
2018-03-25T02:52:13.858Z,4.13
2018-03-25T02:54:43.153Z,4.17
2018-03-25T02:57:12.216Z,4.18
2018-03-25T02:59:41.294Z,4.18
2018-03-25T03:02:10.350Z,4.11
2018-03-25T03:04:39.416Z,4.06
2018-03-25T03:07:08.656Z,4.09
2018-03-25T03:09:37.791Z,4.14
2018-03-25T03:12:06.824Z,4.18
2018-03-25T03:14:36.325Z,4.19
2018-03-25T03:17:05.769Z,4.18
2018-03-25T03:19:34.985Z,4.18
2018-03-25T03:22:04.169Z,4.14
2018-03-25T03:24:34.022Z,4.14
2018-03-25T03:27:03.830Z,4.17
2018-03-25T03:29:33.421Z,4.20
2018-03-25T03:32:02.906Z,4.20
2018-03-25T03:34:33.334Z,4.18
2018-03-25T03:37:03.960Z,4.16
2018-03-25T03:39:33.324Z,4.16
2018-03-25T03:42:02.678Z,4.16
2018-03-25T03:44:31.709Z,4.16
2018-03-25T03:47:00.758Z,4.15
2018-03-25T03:49:30.049Z,4.09
2018-03-25T03:51:59.456Z,3.99
2018-03-25T03:54:28.962Z,3.99
2018-03-25T03:56:59.709Z,4.01
2018-03-25T03:59:28.822Z,3.92
2018-03-25T04:01:57.850Z,3.85
2018-03-25T04:04:26.969Z,3.87
2018-03-25T04:06:56.879Z,3.89
2018-03-25T04:09:25.992Z,3.94
2018-03-25T04:11:55.285Z,3.90
2018-03-25T04:14:24.800Z,3.79
2018-03-25T04:16:53.932Z,3.74
2018-03-25T04:19:22.963Z,3.78
2018-03-25T04:21:52.388Z,3.83
2018-03-25T04:24:21.917Z,3.77
2018-03-25T04:26:51.583Z,3.73
2018-03-25T04:29:21.216Z,3.76
2018-03-25T04:31:50.250Z,3.81
2018-03-25T04:34:19.349Z,3.87
2018-03-25T04:36:48.822Z,3.93
2018-03-25T04:39:17.875Z,3.99
2018-03-25T04:41:47.356Z,4.07
2018-03-25T04:44:16.466Z,4.14
2018-03-25T04:46:45.541Z,4.20
2018-03-25T04:49:14.581Z,4.25
2018-03-25T04:51:43.752Z,4.29
2018-03-25T04:54:14.376Z,4.30
2018-03-25T04:56:44.045Z,4.32
2018-03-25T04:59:13.152Z,4.34
2018-03-25T05:01:42.480Z,4.39
2018-03-25T05:04:12.615Z,4.39
2018-03-25T05:06:41.779Z,4.41
2018-03-25T05:09:11.430Z,4.42
2018-03-25T05:11:40.866Z,4.41
2018-03-25T05:14:10.040Z,4.41
2018-03-25T05:16:39.614Z,4.40
2018-03-25T05:19:08.669Z,4.42
2018-03-25T05:21:37.722Z,4.45
2018-03-25T05:24:06.775Z,4.49
2018-03-25T05:26:35.818Z,4.55
2018-03-25T05:29:04.850Z,4.63
2018-03-25T05:31:33.960Z,4.68
2018-03-25T05:34:03.060Z,4.73
2018-03-25T05:36:32.132Z,4.76
2018-03-25T05:39:01.648Z,4.82
2018-03-25T05:41:30.711Z,4.86
2018-03-25T05:43:59.938Z,4.83
2018-03-25T05:46:29.177Z,4.80
2018-03-25T05:48:58.208Z,4.81
2018-03-25T05:51:27.252Z,4.90
2018-03-25T05:53:56.380Z,4.95
2018-03-25T05:56:25.585Z,5.01
2018-03-25T05:58:54.905Z,5.09
2018-03-25T06:01:24.208Z,5.17
2018-03-25T06:03:54.185Z,5.27
2018-03-25T06:06:23.671Z,5.34
2018-03-25T06:08:52.722Z,5.43
2018-03-25T06:11:22.468Z,5.50
2018-03-25T06:13:51.502Z,5.60
2018-03-25T06:16:21.230Z,5.68
2018-03-25T06:18:50.370Z,5.77
2018-03-25T06:21:19.413Z,5.86
2018-03-25T06:23:48.520Z,5.92
2018-03-25T06:26:18.634Z,6.00
2018-03-25T06:28:47.678Z,6.07
2018-03-25T06:31:17.056Z,6.15
2018-03-25T06:33:46.327Z,6.21
2018-03-25T06:36:15.428Z,6.21
2018-03-25T06:38:44.493Z,6.20
2018-03-25T06:41:13.576Z,6.22
2018-03-25T06:43:43.815Z,6.25
2018-03-25T06:46:13.073Z,6.33
2018-03-25T06:48:42.121Z,6.40
2018-03-25T06:51:11.163Z,6.46
2018-03-25T06:53:40.324Z,6.51
2018-03-25T06:56:09.358Z,6.61
2018-03-25T06:58:39.477Z,6.69
2018-03-25T07:01:08.548Z,6.76
2018-03-25T07:03:38.736Z,6.83
2018-03-25T07:06:07.771Z,6.84
2018-03-25T07:08:36.891Z,6.82
2018-03-25T07:11:05.972Z,6.91
2018-03-25T07:13:36.169Z,6.99
2018-03-25T07:16:06.380Z,7.04
2018-03-25T07:18:36.611Z,7.14
2018-03-25T07:21:06.024Z,7.24
2018-03-25T07:23:35.976Z,7.30
2018-03-25T07:26:05.294Z,7.38
2018-03-25T07:28:34.332Z,7.49
2018-03-25T07:31:04.280Z,7.49
2018-03-25T07:33:34.408Z,7.50
2018-03-25T07:36:03.503Z,7.58
2018-03-25T07:38:33.407Z,7.68
2018-03-25T07:41:02.599Z,7.70
2018-03-25T07:43:31.647Z,7.67
2018-03-25T07:46:00.690Z,7.70
2018-03-25T07:48:30.461Z,7.78
2018-03-25T07:51:00.087Z,7.85
2018-03-25T07:53:29.535Z,7.86
2018-03-25T07:55:58.640Z,7.89
2018-03-25T07:58:27.694Z,7.90
2018-03-25T08:00:56.994Z,7.87
2018-03-25T08:03:26.889Z,7.85
2018-03-25T08:05:56.258Z,7.83
2018-03-25T08:08:25.584Z,7.85
2018-03-25T08:10:54.701Z,7.85
2018-03-25T08:13:23.893Z,7.87
2018-03-25T08:15:52.968Z,7.94
2018-03-25T08:18:22.034Z,8.06
2018-03-25T08:20:51.610Z,8.12
2018-03-25T08:23:20.894Z,8.16
2018-03-25T08:25:49.951Z,8.14
2018-03-25T08:28:19.165Z,8.10
2018-03-25T08:30:48.701Z,8.19
2018-03-25T08:33:17.870Z,8.23
2018-03-25T08:35:46.946Z,8.27
2018-03-25T08:38:15.984Z,8.31
2018-03-25T08:40:45.129Z,8.33
2018-03-25T08:43:14.339Z,8.34
2018-03-25T08:45:43.498Z,8.36
2018-03-25T08:48:12.724Z,8.37
2018-03-25T08:50:42.346Z,8.40
2018-03-25T08:53:11.447Z,8.43
2018-03-25T08:55:40.541Z,8.48
2018-03-25T08:58:09.639Z,8.53
2018-03-25T09:00:38.689Z,8.53
2018-03-25T09:03:07.760Z,8.56
2018-03-25T09:05:37.059Z,8.62
2018-03-25T09:08:06.846Z,8.70
2018-03-25T09:10:36.071Z,8.75
2018-03-25T09:13:05.401Z,8.72
2018-03-25T09:15:34.449Z,8.72
2018-03-25T09:18:03.688Z,8.66
2018-03-25T09:20:33.079Z,8.73
2018-03-25T09:23:02.126Z,8.88
2018-03-25T09:25:31.177Z,9.02
2018-03-25T09:28:00.274Z,9.08
2018-03-25T09:30:29.313Z,9.14
2018-03-25T09:32:58.366Z,9.20
2018-03-25T09:35:27.400Z,9.24
2018-03-25T09:37:56.571Z,9.20
2018-03-25T09:40:25.628Z,9.17
2018-03-25T09:42:55.989Z,9.17
2018-03-25T09:45:25.050Z,9.27
2018-03-25T09:47:54.784Z,9.34
2018-03-25T09:50:24.668Z,9.36
2018-03-25T09:52:54.905Z,9.43
2018-03-25T09:55:24.022Z,9.52
2018-03-25T09:57:53.211Z,9.61
2018-03-25T10:00:28.537Z,9.70
2018-03-25T10:03:00.756Z,9.67
2018-03-25T10:05:30.569Z,9.68
2018-03-25T10:08:00.318Z,9.78
2018-03-25T10:10:30.327Z,9.88
2018-03-25T10:13:00.953Z,9.96
2018-03-25T10:15:30.659Z,10.07
2018-03-25T10:17:59.908Z,10.12
2018-03-25T10:20:30.044Z,10.18
2018-03-25T10:22:59.392Z,10.27
2018-03-25T10:25:28.717Z,10.38
2018-03-25T10:27:57.843Z,10.49
2018-03-25T10:30:27.482Z,10.63
2018-03-25T10:32:57.496Z,10.81
2018-03-25T10:35:28.206Z,10.78
2018-03-25T10:37:58.741Z,10.88
2018-03-25T10:40:28.088Z,10.91
2018-03-25T10:42:57.492Z,10.96
2018-03-25T10:45:26.653Z,11.08
2018-03-25T10:47:56.339Z,11.14
2018-03-25T10:50:26.215Z,11.19
2018-03-25T10:52:55.397Z,11.27
2018-03-25T10:55:24.447Z,11.37
2018-03-25T10:57:53.532Z,11.40
2018-03-25T11:00:22.676Z,11.44
2018-03-25T11:02:53.048Z,11.39
2018-03-25T11:05:22.457Z,11.30
2018-03-25T11:07:52.842Z,11.42
2018-03-25T11:10:22.333Z,11.44
2018-03-25T11:12:51.429Z,11.51
2018-03-25T11:15:20.485Z,11.61
2018-03-25T11:17:49.541Z,11.53
2018-03-25T11:20:19.515Z,11.49
2018-03-25T11:22:49.232Z,11.58
2018-03-25T11:25:18.321Z,11.57
2018-03-25T11:27:47.433Z,11.62
2018-03-25T11:30:17.270Z,11.80
2018-03-25T11:32:46.401Z,11.73
2018-03-25T11:35:16.087Z,11.75
2018-03-25T11:37:45.660Z,11.72
2018-03-25T11:40:15.272Z,11.77
2018-03-25T11:42:45.192Z,11.92
2018-03-25T11:45:14.944Z,12.10
2018-03-25T11:47:44.431Z,12.32
2018-03-25T11:50:14.063Z,12.45
2018-03-25T11:52:43.394Z,12.60
2018-03-25T11:55:12.610Z,12.64
2018-03-25T11:57:42.047Z,12.66
2018-03-25T12:00:13.425Z,12.63
2018-03-25T12:02:42.946Z,12.56
2018-03-25T12:05:12.520Z,12.58
2018-03-25T12:07:41.826Z,12.61
2018-03-25T12:10:11.019Z,12.83
2018-03-25T12:12:42.139Z,13.14
2018-03-25T12:15:12.373Z,13.29
2018-03-25T12:17:41.802Z,13.64
2018-03-25T12:20:11.749Z,14.14
2018-03-25T12:22:42.212Z,14.34
2018-03-25T12:25:11.581Z,14.63
2018-03-25T12:27:40.975Z,14.95
2018-03-25T12:30:10.031Z,14.37
2018-03-25T12:32:39.328Z,13.85
2018-03-25T12:35:09.832Z,13.38
2018-03-25T12:37:38.881Z,12.81
2018-03-25T12:40:09.179Z,12.32
2018-03-25T12:42:38.965Z,12.05
2018-03-25T12:45:08.008Z,11.76
2018-03-25T12:47:37.161Z,11.57
2018-03-25T12:50:07.357Z,11.38
2018-03-25T12:52:37.103Z,11.17
2018-03-25T12:55:06.154Z,11.11
2018-03-25T12:57:35.794Z,11.03
2018-03-25T13:00:06.036Z,11.00
2018-03-25T13:02:37.050Z,11.04
2018-03-25T13:05:06.668Z,11.80
2018-03-25T13:07:35.706Z,12.01
2018-03-25T13:10:05.120Z,11.92
2018-03-25T13:12:34.426Z,11.86
2018-03-25T13:15:03.903Z,11.83
2018-03-25T13:17:33.976Z,11.75
2018-03-25T13:20:03.582Z,11.76
2018-03-25T13:22:33.340Z,11.75
2018-03-25T13:25:03.059Z,11.68
2018-03-25T13:27:33.198Z,11.74
2018-03-25T13:30:02.731Z,11.81
2018-03-25T13:32:32.301Z,11.98
2018-03-25T13:35:01.628Z,12.52
2018-03-25T13:37:31.458Z,12.59
2018-03-25T13:40:00.975Z,12.70
2018-03-25T13:42:30.280Z,13.15
2018-03-25T13:44:59.797Z,12.94
2018-03-25T13:47:29.295Z,12.39
2018-03-25T13:49:58.961Z,12.03
2018-03-25T13:52:29.187Z,11.66
2018-03-25T13:54:58.237Z,11.34
2018-03-25T13:57:28.733Z,11.18
2018-03-25T13:59:58.763Z,10.93
2018-03-25T14:02:27.817Z,10.59
2018-03-25T14:07:09.806Z,10.17
2018-03-25T14:09:38.542Z,9.94
2018-03-25T14:12:07.404Z,9.78
2018-03-25T14:14:36.855Z,9.68
2018-03-25T14:17:06.851Z,9.63
2018-03-25T14:19:35.546Z,9.36
2018-03-25T14:22:03.936Z,9.21
2018-03-25T14:24:32.382Z,9.06
2018-03-25T14:27:01.080Z,8.95
2018-03-25T14:29:31.089Z,8.83
2018-03-25T14:31:59.811Z,8.72
2018-03-25T14:34:28.486Z,8.66
2018-03-25T14:36:58.261Z,8.71
2018-03-25T14:39:27.048Z,8.71
2018-03-25T14:41:56.980Z,8.70
2018-03-25T14:44:25.517Z,8.64
2018-03-25T14:46:53.886Z,8.64
2018-03-25T14:49:22.552Z,8.66
2018-03-25T14:51:51.325Z,8.87
2018-03-25T14:54:21.022Z,9.05
2018-03-25T14:56:50.597Z,9.22
2018-03-25T14:59:20.766Z,9.34
2018-03-25T15:01:49.561Z,9.38
2018-03-25T15:04:18.410Z,9.34
2018-03-25T15:06:46.767Z,9.27
2018-03-25T15:09:15.498Z,9.21
2018-03-25T15:11:43.961Z,9.14
2018-03-25T15:14:12.507Z,9.07
2018-03-25T15:16:41.572Z,9.08
2018-03-25T15:19:10.045Z,9.15
2018-03-25T15:21:38.811Z,9.23
2018-03-25T15:24:08.086Z,9.23
2018-03-25T15:26:37.797Z,9.20
2018-03-25T15:29:06.411Z,9.23
2018-03-25T15:31:35.046Z,9.14
2018-03-25T15:34:04.362Z,9.10
2018-03-25T15:36:32.730Z,9.00
2018-03-25T15:39:01.088Z,8.98
2018-03-25T15:41:29.787Z,9.03
2018-03-25T15:43:59.143Z,9.12
2018-03-25T15:46:27.521Z,9.13
2018-03-25T15:48:56.263Z,9.10
2018-03-25T15:51:24.992Z,9.08
2018-03-25T15:53:53.361Z,9.00
2018-03-25T15:56:22.042Z,8.89
2018-03-25T15:58:50.407Z,8.79
2018-03-25T16:01:18.828Z,8.73
2018-03-25T16:03:47.568Z,8.74
2018-03-25T16:06:16.694Z,8.76
2018-03-25T16:08:45.533Z,8.70
2018-03-25T16:11:13.912Z,8.67
2018-03-25T16:13:44.029Z,8.65
2018-03-25T16:16:12.779Z,8.61
2018-03-25T16:18:41.435Z,8.55
2018-03-25T16:21:09.935Z,8.48
2018-03-25T16:23:42.044Z,8.44
2018-03-25T16:26:11.271Z,8.34
2018-03-25T16:28:40.110Z,8.23
2018-03-25T16:31:09.620Z,8.13
2018-03-25T16:33:38.221Z,8.06
2018-03-25T16:36:06.874Z,8.00
2018-03-25T16:38:36.323Z,7.95
2018-03-25T16:41:05.297Z,7.90
2018-03-25T16:43:35.215Z,7.80
2018-03-25T16:46:04.308Z,7.74
2018-03-25T16:48:33.026Z,7.69
2018-03-25T16:51:02.438Z,7.57
2018-03-25T16:53:31.241Z,7.44
2018-03-25T16:55:59.634Z,7.37
2018-03-25T16:58:28.039Z,7.36
2018-03-25T17:00:56.530Z,7.33
2018-03-25T17:03:25.683Z,7.33
2018-03-25T17:05:55.789Z,7.32
2018-03-25T17:08:24.212Z,7.28
2018-03-25T17:10:54.787Z,7.23
2018-03-25T17:13:24.165Z,7.17
2018-03-25T17:15:53.033Z,7.14
2018-03-25T17:18:22.051Z,7.16
2018-03-25T17:20:51.326Z,7.19
2018-03-25T17:23:21.042Z,7.21
2018-03-25T17:25:49.724Z,7.22
2018-03-25T17:28:18.094Z,7.23
2018-03-25T17:30:46.721Z,7.23
2018-03-25T17:33:15.439Z,7.23
2018-03-25T17:35:44.442Z,7.23
2018-03-25T17:38:13.203Z,7.22
2018-03-25T17:40:41.676Z,7.19
2018-03-25T17:43:10.033Z,7.16
2018-03-25T17:45:39.771Z,7.15
2018-03-25T17:48:09.250Z,7.13
2018-03-25T17:50:38.239Z,7.07
2018-03-25T17:53:06.848Z,7.03
2018-03-25T17:55:38.039Z,6.99
2018-03-25T17:58:06.629Z,6.93
2018-03-25T18:00:35.045Z,6.87
2018-03-25T18:03:03.936Z,6.81
2018-03-25T18:05:33.266Z,6.77
2018-03-25T18:08:02.034Z,6.70
2018-03-25T18:10:30.879Z,6.65
2018-03-25T18:12:59.574Z,6.58
2018-03-25T18:15:28.237Z,6.52
2018-03-25T18:17:56.729Z,6.48
2018-03-25T18:20:25.163Z,6.43
2018-03-25T18:22:53.897Z,6.38
2018-03-25T18:25:22.564Z,6.33
2018-03-25T18:27:52.360Z,6.26
2018-03-25T18:30:21.081Z,6.19
2018-03-25T18:32:49.739Z,6.10
2018-03-25T18:35:18.725Z,6.04
2018-03-25T18:37:47.693Z,6.00
2018-03-25T18:40:17.364Z,5.91
2018-03-25T18:42:47.442Z,5.79
2018-03-25T18:45:16.462Z,5.67
2018-03-25T18:47:44.836Z,5.54
2018-03-25T18:50:13.290Z,5.49
2018-03-25T18:52:42.225Z,5.47
2018-03-25T18:55:10.626Z,5.46
2018-03-25T18:57:38.995Z,5.45
2018-03-25T19:00:07.671Z,5.46
2018-03-25T19:02:36.438Z,5.39
2018-03-25T19:05:04.840Z,5.34
2018-03-25T19:07:33.646Z,5.31
2018-03-25T19:10:02.331Z,5.30
2018-03-25T19:12:30.705Z,5.30
2018-03-25T19:14:59.088Z,5.29
2018-03-25T19:17:27.473Z,5.29
2018-03-25T19:19:56.635Z,5.25
2018-03-25T19:22:25.381Z,5.24
2018-03-25T19:24:54.154Z,5.24
2018-03-25T19:27:22.539Z,5.26
2018-03-25T19:29:51.718Z,5.31
2018-03-25T19:32:20.992Z,5.31
2018-03-25T19:34:49.642Z,5.29
2018-03-25T19:37:18.014Z,5.29
2018-03-25T19:39:47.026Z,5.27
2018-03-25T19:42:15.400Z,5.26
2018-03-25T19:44:44.560Z,5.25
2018-03-25T19:47:12.962Z,5.27
2018-03-25T19:49:41.396Z,5.29
2018-03-25T19:52:10.470Z,5.30
2018-03-25T19:54:39.935Z,5.31
2018-03-25T19:57:08.312Z,5.28
2018-03-25T19:59:37.105Z,5.29
2018-03-25T20:02:05.479Z,5.32
2018-03-25T20:04:34.805Z,5.36
2018-03-25T20:07:03.644Z,5.39
2018-03-25T20:09:32.363Z,5.42
2018-03-25T20:12:00.747Z,5.41
2018-03-25T20:14:29.355Z,5.38
2018-03-25T20:16:58.226Z,5.33
2018-03-25T20:19:26.784Z,5.29
2018-03-25T20:21:56.283Z,5.30
2018-03-25T20:24:25.091Z,5.32
2018-03-25T20:26:53.667Z,5.36
2018-03-25T20:29:22.285Z,5.39
2018-03-25T20:31:50.664Z,5.42
2018-03-25T20:34:19.794Z,5.43
2018-03-25T20:36:49.189Z,5.45
2018-03-25T20:39:18.275Z,5.46
2018-03-25T20:41:46.802Z,5.47
2018-03-25T20:44:16.235Z,5.48
2018-03-25T20:46:45.986Z,5.51
2018-03-25T20:49:14.655Z,5.55
2018-03-25T20:51:43.433Z,5.56
2018-03-25T20:54:12.217Z,5.58
2018-03-25T20:56:40.802Z,5.61
2018-03-25T20:59:09.278Z,5.61
2018-03-25T21:01:38.666Z,5.62
2018-03-25T21:04:07.143Z,5.65
2018-03-25T21:06:36.429Z,5.65
2018-03-25T21:09:05.052Z,5.64
2018-03-25T21:11:33.928Z,5.65
2018-03-25T21:14:03.162Z,5.64
2018-03-25T21:16:33.753Z,5.64
2018-03-25T21:19:02.380Z,5.66
2018-03-25T21:21:30.796Z,5.68
2018-03-25T21:24:00.732Z,5.66
2018-03-25T21:26:30.762Z,5.65
2018-03-25T21:29:00.131Z,5.66
2018-03-25T21:31:29.479Z,5.70
2018-03-25T21:36:32.602Z,5.69
2018-03-25T21:39:05.474Z,5.73
2018-03-25T21:41:34.229Z,5.75
2018-03-25T21:44:03.394Z,5.74
2018-03-25T21:46:31.801Z,5.70
2018-03-25T21:49:00.452Z,5.65
2018-03-25T21:51:29.382Z,5.63
2018-03-25T21:53:58.108Z,5.59
2018-03-25T21:59:01.683Z,5.54
2018-03-25T22:01:31.917Z,5.55
2018-03-25T22:04:00.565Z,5.58
2018-03-25T22:06:29.475Z,5.61
2018-03-25T22:08:58.157Z,5.65
2018-03-25T22:11:27.370Z,5.70
2018-03-25T22:13:58.415Z,5.75
2018-03-25T22:16:27.539Z,5.79
2018-03-25T22:19:00.008Z,5.82
2018-03-25T22:21:29.502Z,5.80
2018-03-25T22:23:58.579Z,5.75
2018-03-25T22:26:28.796Z,5.73
2018-03-25T22:28:57.887Z,5.69
2018-03-25T22:31:28.224Z,5.71
2018-03-25T22:33:57.195Z,5.71
2018-03-25T22:36:26.758Z,5.69
2018-03-25T22:38:55.931Z,5.64
2018-03-25T22:41:24.609Z,5.59
2018-03-25T22:43:54.492Z,5.51
2018-03-25T22:46:22.905Z,5.47
2018-03-25T22:48:52.398Z,5.41
2018-03-25T22:51:21.206Z,5.38
2018-03-25T22:53:50.686Z,5.33
2018-03-25T22:56:19.343Z,5.28
2018-03-25T22:58:47.718Z,5.25
2018-03-25T23:01:18.069Z,5.22
2018-03-25T23:03:46.979Z,5.21
2018-03-25T23:06:15.383Z,5.18
2018-03-25T23:08:44.988Z,5.08
2018-03-25T23:11:15.538Z,4.97
2018-03-25T23:13:43.921Z,4.84
2018-03-25T23:16:12.780Z,4.73
2018-03-25T23:18:43.345Z,4.64
2018-03-25T23:21:12.896Z,4.59
2018-03-25T23:23:42.362Z,4.58
2018-03-25T23:26:12.026Z,4.53
2018-03-25T23:28:41.543Z,4.51
2018-03-25T23:31:09.973Z,4.48
2018-03-25T23:33:38.827Z,4.41
2018-03-25T23:36:07.248Z,4.34
2018-03-25T23:38:36.359Z,4.28
2018-03-25T23:41:05.082Z,4.22
2018-03-25T23:43:33.924Z,4.17
2018-03-25T23:46:02.280Z,4.15
2018-03-25T23:48:31.091Z,4.14
2018-03-25T23:51:00.013Z,4.12
2018-03-25T23:53:29.295Z,4.10
2018-03-25T23:55:58.378Z,4.09
2018-03-25T23:58:27.943Z,4.07
